Time;durP1;ratioP1;P1;durP2;ratioP2;P2;SDS_P1;SDS_P2;PMS_P1;PMS_P2;Temp;Humidity;BMP_temperature;BMP_pressure;BME280_temperature;BME280_humidity;BME280_pressure;Samples;Min_cycle;Max_cycle;Signal;HPM_P1;HPM_P2
2021/12/08 00:02:21;;;;;;;24.40;10.97;;;;;;;0.42;75.68;99750.96;1434773;91;21687;-84
2021/12/08 00:04:47;;;;;;;23.97;11.00;;;;;;;0.36;75.35;99755.27;1439339;91;21563;-84
2021/12/08 00:07:14;;;;;;;30.83;14.70;;;;;;;0.36;75.46;99751.36;1430182;90;21760;-84
2021/12/08 00:14:58;;;;;;;20.97;9.27;;;;;;;0.34;75.40;99752.39;1421272;92;22771;-84
2021/12/08 00:17:25;;;;;;;30.17;13.87;;;;;;;0.29;75.11;99754.01;1417145;91;22629;-84
2021/12/08 00:19:53;;;;;;;25.60;13.80;;;;;;;0.34;75.52;99760.20;1412987;91;22331;-83
2021/12/08 00:22:20;;;;;;;25.30;12.77;;;;;;;0.36;75.32;99764.37;1420717;91;21520;-83
2021/12/08 00:24:46;;;;;;;25.07;13.33;;;;;;;0.37;75.72;99769.94;1425562;91;21759;-83
2021/12/08 00:27:12;;;;;;;27.90;13.03;;;;;;;0.33;75.69;99767.66;1417978;91;21594;-83
2021/12/08 00:29:38;;;;;;;24.60;13.57;;;;;;;0.33;75.18;99771.09;1418835;91;21430;-83
2021/12/08 00:32:08;;;;;;;28.67;14.80;;;;;;;0.32;74.99;99761.62;1412756;92;21936;-83
2021/12/08 00:34:34;;;;;;;26.30;13.93;;;;;;;0.36;75.55;99757.87;1415603;92;21661;-83
2021/12/08 00:37:01;;;;;;;25.37;14.37;;;;;;;0.34;75.70;99762.80;1416721;92;21616;-83
2021/12/08 00:39:29;;;;;;;26.73;13.63;;;;;;;0.33;75.64;99767.18;1415015;92;21711;-83
2021/12/08 00:41:55;;;;;;;25.83;12.57;;;;;;;0.28;75.38;99765.80;1417744;92;21644;-82
2021/12/08 00:44:21;;;;;;;26.20;12.37;;;;;;;0.23;75.30;99771.29;1428958;89;21915;-83
2021/12/08 00:46:48;;;;;;;24.77;12.30;;;;;;;0.21;75.23;99774.48;1435489;91;21648;-83
2021/12/08 00:49:16;;;;;;;25.07;12.17;;;;;;;0.26;75.72;99785.88;1443936;88;21596;-85
2021/12/08 00:51:43;;;;;;;28.87;14.93;;;;;;;0.20;75.49;99777.99;1462187;88;21613;-85
2021/12/08 00:54:11;;;;;;;23.57;10.80;;;;;;;0.16;75.52;99774.77;1477453;88;22254;-85
2021/12/08 00:56:37;;;;;;;29.07;14.07;;;;;;;0.15;75.61;99774.88;1469067;88;21738;-85
2021/12/08 00:59:03;;;;;;;25.73;11.47;;;;;;;0.15;75.41;99780.91;1469599;87;21729;-85
2021/12/08 01:01:31;;;;;;;24.83;11.90;;;;;;;0.11;75.49;99779.88;1459324;88;21627;-84
2021/12/08 01:03:57;;;;;;;26.13;12.37;;;;;;;0.10;75.35;99776.92;1467511;88;21793;-84
2021/12/08 01:06:24;;;;;;;23.70;11.33;;;;;;;0.05;75.40;99781.58;1451599;89;22256;-85
2021/12/08 01:08:51;;;;;;;25.83;12.60;;;;;;;0.07;75.86;99786.23;1446526;89;22736;-85
2021/12/08 01:11:20;;;;;;;21.27;10.50;;;;;;;0.05;75.62;99789.38;1455217;89;21690;-85
2021/12/08 01:13:47;;;;;;;31.00;15.67;;;;;;;0.04;75.45;99782.52;1457425;89;21525;-85
2021/12/08 01:16:15;;;;;;;26.23;14.07;;;;;;;0.06;75.92;99792.34;1499188;89;21848;-84
2021/12/08 01:18:41;;;;;;;25.40;14.17;;;;;;;0.09;75.74;99787.80;1460055;89;21651;-83
2021/12/08 01:21:10;;;;;;;32.07;15.50;;;;;;;0.09;76.27;99794.31;1456469;89;21681;-83
2021/12/08 01:23:39;;;;;;;28.77;12.33;;;;;;;0.04;75.90;99791.16;1465264;89;21560;-82
2021/12/08 01:26:07;;;;;;;29.47;13.33;;;;;;;-0.02;75.71;99792.38;1454111;89;22425;-83
2021/12/08 01:28:34;;;;;;;35.17;15.33;;;;;;;-0.03;76.10;99784.21;1470427;88;21522;-83
2021/12/08 01:31:01;;;;;;;35.00;15.23;;;;;;;-0.02;76.14;99789.77;1475194;88;21594;-83
2021/12/08 01:33:32;;;;;;;24.53;12.70;;;;;;;-0.02;76.24;99782.44;1465422;88;22050;-84
2021/12/08 01:35:57;;;;;;;29.37;13.77;;;;;;;-0.09;76.11;99792.84;1452765;89;23531;-83
2021/12/08 01:38:25;;;;;;;23.10;11.20;;;;;;;-0.10;76.14;99792.01;1460840;88;21775;-83
2021/12/08 01:40:52;;;;;;;23.20;11.47;;;;;;;-0.09;76.18;99787.16;1475054;88;22091;-83
2021/12/08 01:43:29;;;;;;;25.80;13.17;;;;;;;-0.14;76.12;99781.44;1465168;88;21517;-83
2021/12/08 01:46:05;;;;;;;27.57;13.87;;;;;;;-0.14;76.27;99786.64;1455459;89;21730;-83
2021/12/08 01:48:36;;;;;;;26.90;12.63;;;;;;;-0.26;76.44;99777.83;1460041;89;21637;-84
2021/12/08 01:51:15;;;;;;;;;;;;;;;-0.26;76.75;99773.94;1463907;89;21744;-83
2021/12/08 01:53:46;;;;;;;25.77;12.40;;;;;;;-0.31;76.78;99772.07;1458760;89;20835;-82
2021/12/08 01:56:13;;;;;;;32.67;14.70;;;;;;;-0.35;77.15;99771.05;1467114;89;21620;-84
2021/12/08 01:58:40;;;;;;;27.13;13.60;;;;;;;-0.36;77.29;99756.38;1456544;89;21484;-85
2021/12/08 02:01:10;;;;;;;32.77;17.07;;;;;;;-0.39;77.75;99764.37;1461633;89;21665;-84
2021/12/08 02:03:38;;;;;;;27.22;13.50;;;;;;;-0.42;77.74;99765.39;1449788;89;22613;-83
2021/12/08 02:06:07;;;;;;;28.83;12.73;;;;;;;-0.44;78.04;99767.24;1471475;88;21551;-83
2021/12/08 02:08:36;;;;;;;28.73;13.77;;;;;;;-0.48;78.38;99761.41;1465797;88;21529;-83
2021/12/08 02:11:04;;;;;;;33.33;15.37;;;;;;;-0.51;78.29;99766.79;1461715;88;22734;-83
2021/12/08 02:13:38;;;;;;;22.53;11.00;;;;;;;-0.47;78.24;99768.73;1493572;92;21385;-84
2021/12/08 02:16:03;;;;;;;24.93;12.87;;;;;;;-0.52;78.32;99775.53;1372907;90;21728;-84
2021/12/08 02:18:30;;;;;;;30.03;14.27;;;;;;;-0.52;78.45;99767.73;1472866;90;21647;-85
2021/12/08 02:21:00;;;;;;;30.30;16.27;;;;;;;-0.55;78.55;99767.89;1435089;90;22301;-84
2021/12/08 02:23:27;;;;;;;37.60;16.80;;;;;;;-0.58;78.65;99758.98;1434686;90;23742;-85
2021/12/08 02:25:53;;;;;;;34.17;13.67;;;;;;;-0.55;78.58;99758.79;1428856;90;22601;-84
2021/12/08 02:28:19;;;;;;;34.07;14.77;;;;;;;-0.66;79.10;99761.23;1445858;87;21436;-85
2021/12/08 02:30:55;;;;;;;38.67;18.37;;;;;;;-0.67;79.42;99760.01;1452268;90;21498;-84
2021/12/08 02:47:31;;;;;;;35.10;14.53;;;;;;;-0.72;80.16;99774.56;1482068;88;22610;-84
2021/12/08 02:49:45;;;;;;;33.87;13.00;;;;;;;-0.72;80.38;99773.27;1470589;88;21672;-84
2021/12/08 02:52:13;;;;;;;31.10;14.70;;;;;;;-0.74;80.09;99777.27;1448082;89;21687;-84
2021/12/08 02:54:45;;;;;;;33.77;16.67;;;;;;;-0.71;80.16;99777.56;1476146;89;21716;-82
2021/12/08 02:57:16;;;;;;;;;;;;;;;-0.70;80.23;99770.95;1462072;88;21796;-84
2021/12/08 02:59:46;;;;;;;23.75;10.68;;;;;;;-0.70;80.52;99768.82;1466115;89;20338;-84
2021/12/08 03:02:14;;;;;;;25.72;10.85;;;;;;;-0.70;80.26;99777.45;1461718;89;23150;-84
2021/12/08 03:04:42;;;;;;;32.60;16.77;;;;;;;-0.72;80.29;99786.27;1467398;89;21350;-84
2021/12/08 03:07:09;;;;;;;30.33;15.77;;;;;;;-0.69;80.21;99783.51;1465331;89;22562;-84
2021/12/08 03:09:36;;;;;;;39.63;19.70;;;;;;;-0.72;80.35;99779.77;1463490;88;21719;-84
2021/12/08 03:12:04;;;;;;;36.10;15.60;;;;;;;-0.70;80.31;99784.41;1468510;89;21628;-84
2021/12/08 03:14:31;;;;;;;31.13;13.70;;;;;;;-0.74;80.50;99784.23;1502576;88;21768;-84
2021/12/08 03:17:03;;;;;;;38.10;17.30;;;;;;;-0.78;80.68;99782.27;1466186;89;22280;-82
2021/12/08 03:19:30;;;;;;;29.17;12.93;;;;;;;-0.77;80.66;99783.12;1463355;89;22730;-83
2021/12/08 03:21:58;;;;;;;36.20;17.00;;;;;;;-0.82;80.84;99780.79;1464561;89;21802;-84
2021/12/08 03:29:46;;;;;;;39.73;17.50;;;;;;;-0.87;81.26;99780.69;1462416;88;22198;-83
2021/12/08 03:32:12;;;;;;;33.67;15.67;;;;;;;-0.91;81.34;99782.64;1446363;89;22064;-83
2021/12/08 03:34:41;;;;;;;32.85;15.80;;;;;;;-0.91;81.29;99789.96;1462632;89;22203;-82
2021/12/08 03:37:09;;;;;;;38.37;16.70;;;;;;;-0.95;81.23;99788.48;1463270;88;21587;-82
2021/12/08 03:39:40;;;;;;;31.10;15.95;;;;;;;-0.97;81.09;99781.70;1461686;89;22237;-83
2021/12/08 03:42:06;;;;;;;37.93;17.40;;;;;;;-1.04;81.40;99779.91;1459145;89;21502;-83
2021/12/08 03:44:32;;;;;;;32.05;16.30;;;;;;;-1.09;81.63;99778.06;1467631;88;21619;-83
2021/12/08 03:47:03;;;;;;;31.43;13.83;;;;;;;-1.07;81.35;99778.79;1451063;89;22043;-83
2021/12/08 03:49:31;;;;;;;36.77;16.23;;;;;;;-1.09;81.59;99776.77;1462647;89;22376;-83
2021/12/08 03:52:03;;;;;;;44.73;19.67;;;;;;;-1.09;81.56;99781.96;1473581;88;21623;-83
2021/12/08 03:54:30;;;;;;;44.98;19.05;;;;;;;-1.11;81.66;99789.47;1475377;88;21416;-83
2021/12/08 03:56:56;;;;;;;25.85;12.07;;;;;;;-1.09;81.37;99796.68;1459926;88;21445;-83
2021/12/08 03:59:27;;;;;;;34.60;15.05;;;;;;;-1.14;81.53;99794.38;1477895;88;22002;-83
2021/12/08 04:01:54;;;;;;;39.15;16.50;;;;;;;-1.12;81.35;99793.83;1461922;88;21571;-83
2021/12/08 04:04:26;;;;;;;31.20;13.80;;;;;;;-1.14;81.29;99791.77;1472960;88;21490;-83
2021/12/08 04:06:52;;;;;;;34.33;15.08;;;;;;;-1.17;81.44;99797.97;1479269;88;21611;-84
2021/12/08 04:09:38;;;;;;;32.45;16.97;;;;;;;-1.20;81.55;99798.62;1474314;88;21571;-84
2021/12/08 04:12:02;;;;;;;36.63;15.50;;;;;;;-1.19;81.42;99798.52;1471736;88;21483;-84
2021/12/08 04:14:34;;;;;;;35.88;15.88;;;;;;;-1.24;81.64;99799.23;1482291;88;21529;-83
2021/12/08 04:17:03;;;;;;;;;;;;;;;-1.23;81.62;99807.42;1480962;88;21431;-83
2021/12/08 04:19:34;;;;;;;30.57;14.45;;;;;;;-1.26;81.75;99811.96;1479173;88;20367;-84
2021/12/08 04:22:15;;;;;;;41.00;18.62;;;;;;;-1.27;81.80;99812.39;1481449;88;23320;-84
2021/12/08 04:24:45;;;;;;;29.37;14.25;;;;;;;-1.24;81.65;99815.28;1460699;88;21682;-83
2021/12/08 04:27:16;;;;;;;35.03;15.23;;;;;;;-1.26;81.77;99811.49;1479877;88;22443;-84
2021/12/08 04:29:45;;;;;;;36.10;15.75;;;;;;;-1.28;82.03;99809.91;1475276;87;21446;-82
2021/12/08 04:32:15;;;;;;;35.80;16.07;;;;;;;-1.27;81.93;99817.59;1473797;88;21567;-82
2021/12/08 04:34:45;;;;;;;33.92;15.93;;;;;;;-1.27;81.93;99817.59;1476193;88;21505;-82
2021/12/08 04:37:25;;;;;;;32.42;16.17;;;;;;;-1.30;82.03;99816.94;1471837;88;21445;-84
2021/12/08 04:40:20;;;;;;;42.05;17.07;;;;;;;-1.31;82.17;99807.02;1472145;88;22059;-83
2021/12/08 04:43:06;;;;;;;32.35;15.05;;;;;;;-1.31;82.01;99808.78;1478607;88;21488;-82
2021/12/08 04:45:42;;;;;;;36.15;15.95;;;;;;;-1.33;82.45;99805.43;1473542;87;21474;-82
2021/12/08 04:51:15;;;;;;;30.65;13.58;;;;;;;-1.42;82.98;99805.02;1472688;88;21563;-82
2021/12/08 04:53:47;;;;;;;30.27;13.55;;;;;;;-1.46;83.04;99812.63;1475851;88;21356;-83
2021/12/08 05:04:34;;;;;;;31.93;15.00;;;;;;;-1.42;82.54;99821.06;1401047;88;22127;-82
2021/12/08 05:07:14;;;;;;;;;;;;;;;-1.47;82.81;99817.41;1474936;88;21535;-82
2021/12/08 05:09:37;;;;;;;31.60;14.15;;;;;;;-1.50;83.05;99817.59;1487189;88;20442;-83
2021/12/08 05:12:08;;;;;;;36.23;16.80;;;;;;;-1.52;83.25;99811.67;1464813;88;22664;-83
2021/12/08 05:14:54;;;;;;;31.73;14.23;;;;;;;-1.51;83.18;99812.50;1472825;88;21512;-85
2021/12/08 05:17:26;;;;;;;31.42;14.40;;;;;;;-1.53;83.32;99817.77;1474625;88;21497;-84
2021/12/08 05:19:58;;;;;;;32.13;15.00;;;;;;;-1.51;82.98;99814.62;1474511;88;22443;-85
2021/12/08 05:22:31;;;;;;;28.92;14.18;;;;;;;-1.55;83.21;99818.77;1475944;88;21533;-85
2021/12/08 05:25:02;;;;;;;30.80;15.03;;;;;;;-1.58;83.48;99812.02;1475684;88;21549;-82
2021/12/08 05:27:40;;;;;;;30.68;15.80;;;;;;;-1.55;83.11;99810.55;1459260;88;21481;-82
2021/12/08 05:30:12;;;;;;;27.32;11.75;;;;;;;-1.56;83.00;99802.36;1469057;88;21526;-83
2021/12/08 05:32:39;;;;;;;35.00;17.45;;;;;;;-1.64;83.99;99811.03;1462594;88;21535;-84
2021/12/08 05:35:09;;;;;;;37.03;15.65;;;;;;;-1.61;83.57;99813.48;1455086;89;21390;-84
2021/12/08 05:37:36;;;;;;;27.93;13.25;;;;;;;-1.64;83.77;99818.38;1460128;89;21457;-84
2021/12/08 05:40:08;;;;;;;37.15;17.40;;;;;;;-1.65;83.82;99814.56;1433063;89;21434;-83
2021/12/08 05:42:35;;;;;;;30.08;14.38;;;;;;;-1.67;84.21;99813.80;1455587;89;21397;-85
2021/12/08 05:45:07;;;;;;;35.05;15.98;;;;;;;-1.67;84.05;99809.91;1457906;89;21508;-85
2021/12/08 05:47:34;;;;;;;28.73;15.13;;;;;;;-1.66;83.78;99809.01;1462480;89;22477;-85
2021/12/08 05:50:00;;;;;;;39.10;18.00;;;;;;;-1.70;83.73;99805.72;1451928;89;21405;-85
2021/12/08 05:52:27;;;;;;;33.48;14.50;;;;;;;-1.67;83.50;99805.58;1448506;89;21652;-85
2021/12/08 05:54:54;;;;;;;32.73;16.05;;;;;;;-1.67;83.66;99824.18;1451337;89;22263;-85
2021/12/08 05:57:28;;;;;;;28.60;15.18;;;;;;;-1.67;83.72;99817.69;1449031;90;22559;-84
2021/12/08 05:59:57;;;;;;;31.82;15.58;;;;;;;-1.69;83.42;99819.56;1446385;89;21493;-84
2021/12/08 06:02:31;;;;;;;34.48;15.32;;;;;;;-1.72;83.51;99814.54;1487883;89;22343;-84
2021/12/08 06:05:00;;;;;;;32.63;15.60;;;;;;;-1.73;83.29;99817.56;1452891;89;23345;-82
2021/12/08 06:07:27;;;;;;;27.10;13.83;;;;;;;-1.75;83.26;99829.81;1451117;89;21647;-83
2021/12/08 06:09:58;;;;;;;31.57;16.85;;;;;;;-1.76;83.28;99835.06;1451006;89;21367;-83
2021/12/08 06:12:26;;;;;;;35.13;15.58;;;;;;;-1.72;83.08;99841.78;1454463;89;21526;-83
2021/12/08 06:14:55;;;;;;;27.50;14.55;;;;;;;-1.71;82.76;99839.09;1476450;89;21382;-84
2021/12/08 06:17:26;;;;;;;27.07;11.97;;;;;;;-1.70;82.53;99843.81;1454506;89;21340;-84
2021/12/08 06:19:54;;;;;;;28.05;13.35;;;;;;;-1.74;82.58;99846.20;1455773;89;21448;-84
2021/12/08 06:22:25;;;;;;;31.85;15.95;;;;;;;-1.76;82.60;99846.28;1453379;89;21354;-84
2021/12/08 06:24:52;;;;;;;28.95;14.78;;;;;;;-1.75;82.64;99847.14;1425167;91;21625;-84
2021/12/08 06:27:19;;;;;;;31.35;14.50;;;;;;;-1.79;82.71;99846.91;1457328;89;21377;-84
2021/12/08 06:29:49;;;;;;;27.60;14.43;;;;;;;-1.85;83.06;99845.48;1450734;89;21456;-84
2021/12/08 06:32:17;;;;;;;33.02;16.00;;;;;;;-1.85;83.17;99850.20;1454735;89;21377;-84
2021/12/08 06:34:49;;;;;;;31.33;14.90;;;;;;;-1.79;82.87;99853.39;1450989;89;21442;-84
2021/12/08 06:37:23;;;;;;;34.13;16.17;;;;;;;-1.79;82.93;99855.52;1451881;89;22457;-84
2021/12/08 06:40:18;;;;;;;34.40;15.30;;;;;;;-1.77;82.85;99864.54;1456439;89;21522;-84
2021/12/08 06:42:51;;;;;;;35.73;17.07;;;;;;;-1.77;82.72;99860.18;1457473;89;21551;-84
2021/12/08 06:45:23;;;;;;;35.25;15.70;;;;;;;-1.71;82.59;99866.80;1453144;89;21426;-82
2021/12/08 06:47:53;;;;;;;34.92;14.80;;;;;;;-1.66;82.53;99873.88;1451140;89;21374;-82
2021/12/08 06:50:25;;;;;;;29.47;16.20;;;;;;;-1.68;82.30;99870.05;1433544;89;21508;-83
2021/12/08 06:52:52;;;;;;;33.70;15.80;;;;;;;-1.63;82.10;99873.70;1391779;87;21631;-84
2021/12/08 06:58:48;;;;;;;32.85;13.90;;;;;;;-1.60;81.86;99882.16;1513015;86;22617;-84
2021/12/08 07:04:27;;;;;;;32.05;15.70;;;;;;;-1.52;81.59;99879.15;1470101;88;21406;-83
2021/12/08 07:06:59;;;;;;;37.58;17.60;;;;;;;-1.42;81.59;99887.26;1461561;88;21413;-83
2021/12/08 07:09:26;;;;;;;32.88;14.98;;;;;;;-1.41;81.03;99888.48;1466423;88;21450;-83
2021/12/08 07:11:56;;;;;;;35.05;16.65;;;;;;;-1.32;81.17;99890.17;1463396;88;21471;-83
2021/12/08 07:14:25;;;;;;;30.88;14.43;;;;;;;-1.32;80.60;99887.14;1510858;87;21501;-83
2021/12/08 07:16:57;;;;;;;29.95;14.87;;;;;;;-1.31;80.27;99889.27;1482116;89;21435;-83
2021/12/08 07:19:41;;;;;;;35.15;16.60;;;;;;;-1.26;80.27;99890.69;1476349;89;22632;-83
2021/12/08 07:22:06;;;;;;;32.38;16.37;;;;;;;-1.22;80.25;99897.84;1542599;89;21428;-83
2021/12/08 07:24:38;;;;;;;28.60;16.12;;;;;;;-1.17;80.33;99895.36;1546352;88;21215;-83
2021/12/08 07:27:10;;;;;;;31.93;14.87;;;;;;;-1.21;79.45;99908.59;1490431;90;22309;-84
2021/12/08 07:29:40;;;;;;;35.92;18.02;;;;;;;-1.09;79.79;99905.77;1466652;89;21457;-84
2021/12/08 07:32:21;;;;;;;40.60;18.60;;;;;;;-1.01;80.04;99901.80;1460325;89;22453;-84
2021/12/08 07:34:51;;;;;;;22.80;11.83;;;;;;;-0.91;79.55;99913.83;1460316;89;21610;-84
2021/12/08 07:37:22;;;;;;;27.37;13.63;;;;;;;-0.83;79.43;99916.00;1374504;90;21450;-83
2021/12/08 07:40:12;;;;;;;25.97;13.40;;;;;;;-0.76;78.63;99914.71;1457930;90;22931;-85
2021/12/08 07:42:47;;;;;;;18.32;9.68;;;;;;;-0.72;78.70;99913.16;1463672;89;22632;-88
2021/12/08 07:45:19;;;;;;;21.50;11.10;;;;;;;-0.75;77.77;99908.14;1458277;87;22861;-86
2021/12/08 07:47:52;;;;;;;23.57;10.43;;;;;;;-0.73;77.91;99906.73;1450326;88;21714;-85
2021/12/08 07:50:37;;;;;;;28.33;12.43;;;;;;;-0.83;77.33;99905.61;1466250;88;21611;-87
2021/12/08 07:53:07;;;;;;;25.50;12.53;;;;;;;-0.80;77.65;99901.06;1466223;89;21604;-86
2021/12/08 07:55:40;;;;;;;23.47;12.77;;;;;;;-0.72;77.63;99906.66;1463739;88;21834;-86
2021/12/08 07:58:09;;;;;;;30.37;11.83;;;;;;;-0.67;76.57;99915.48;1472160;87;22411;-86
2021/12/08 08:00:57;;;;;;;28.77;13.03;;;;;;;-0.64;76.31;99919.20;1417430;91;21617;-86
2021/12/08 08:03:28;;;;;;;24.87;11.97;;;;;;;-0.64;75.65;99915.77;1415934;92;21556;-86
2021/12/08 08:05:55;;;;;;;37.88;16.60;;;;;;;-0.58;76.06;99916.23;1471308;92;21744;-86
2021/12/08 08:08:25;;;;;;;29.37;14.77;;;;;;;-0.53;75.94;99906.41;1463916;91;21441;-87
2021/12/08 08:10:57;;;;;;;20.37;11.50;;;;;;;-0.48;75.62;99904.39;1436586;91;22896;-85
2021/12/08 08:13:25;;;;;;;30.40;14.47;;;;;;;-0.40;74.90;99901.78;1432251;91;22803;-85
2021/12/08 08:16:05;;;;;;;45.20;21.93;;;;;;;-0.37;74.67;99897.73;1436070;91;21511;-86
2021/12/08 08:18:38;;;;;;;28.80;14.33;;;;;;;-0.22;75.60;99904.61;1435541;91;21826;-85
2021/12/08 08:21:12;;;;;;;17.30;8.27;;;;;;;-0.15;74.78;99905.90;1437230;90;21731;-85
2021/12/08 08:23:39;;;;;;;34.57;18.00;;;;;;;-0.22;72.80;99907.21;1434593;91;22995;-85
2021/12/08 08:26:09;;;;;;;25.43;11.87;;;;;;;-0.19;73.56;99904.42;1437196;91;21747;-85
2021/12/08 08:28:36;;;;;;;20.07;9.63;;;;;;;-0.15;73.20;99907.20;1516019;91;21533;-85
2021/12/08 08:31:10;;;;;;;25.80;13.10;;;;;;;-0.07;72.53;99908.88;1484787;91;21644;-86
2021/12/08 08:33:40;;;;;;;41.33;18.97;;;;;;;0.02;73.23;99910.09;1515864;91;21659;-85
2021/12/08 08:36:12;;;;;;;31.33;16.67;;;;;;;0.09;72.83;99906.20;1516133;90;22169;-86
2021/12/08 08:38:43;;;;;;;25.37;12.50;;;;;;;0.15;72.00;99904.99;1417701;91;22567;-85
2021/12/08 08:41:31;;;;;;;22.37;12.07;;;;;;;0.09;71.36;99900.16;1446439;89;21417;-86
2021/12/08 08:44:02;;;;;;;27.30;12.87;;;;;;;0.22;72.64;99903.67;1425943;89;21687;-85
2021/12/08 08:46:35;;;;;;;29.12;15.60;;;;;;;0.33;72.12;99903.84;1416799;92;21825;-84
2021/12/08 08:49:08;;;;;;;23.17;11.40;;;;;;;0.36;71.96;99904.95;1395232;94;21316;-85
2021/12/08 08:51:40;;;;;;;36.50;18.67;;;;;;;0.45;71.29;99903.08;1430875;91;22420;-84
2021/12/08 08:54:13;;;;;;;26.03;13.30;;;;;;;0.48;69.99;99895.54;1432906;90;21577;-85
2021/12/08 08:56:47;;;;;;;22.90;12.30;;;;;;;0.52;69.94;99898.78;1430123;91;22512;-85
2021/12/08 08:59:22;;;;;;;25.20;12.60;;;;;;;0.58;71.29;99899.72;1450888;87;21688;-96
2021/12/08 09:01:53;;;;;;;17.23;10.20;;;;;;;0.57;69.93;99901.94;1453164;85;21943;-96
2021/12/08 09:04:30;;;;;;;37.00;18.10;;;;;;;0.64;69.80;99908.44;1445951;85;21955;-90
2021/12/08 09:07:02;;;;;;;30.93;14.83;;;;;;;0.70;69.86;99901.54;1459733;88;21420;-94
2021/12/08 09:09:36;;;;;;;29.10;15.60;;;;;;;0.73;69.50;99896.13;1480211;87;21746;-94
2021/12/08 09:12:18;;;;;;;21.80;10.83;;;;;;;0.77;69.13;99898.89;1466954;88;21640;-95
2021/12/08 09:14:56;;;;;;;27.35;13.13;;;;;;;0.87;69.03;99896.09;1426143;90;21698;-95
2021/12/08 09:17:42;;;;;;;50.63;24.30;;;;;;;1.01;68.90;99892.59;1466100;89;21465;-94
2021/12/08 09:20:29;;;;;;;42.00;19.60;;;;;;;1.09;68.92;99886.42;1467072;89;22207;-93
2021/12/08 09:23:03;;;;;;;26.97;14.17;;;;;;;1.26;70.06;99880.54;1469905;89;21806;-95
2021/12/08 09:33:02;;;;;;;26.77;14.63;;;;;;;1.68;68.41;99867.70;1379522;87;21874;-89
2021/12/08 09:35:39;;;;;;;51.03;23.70;;;;;;;1.78;66.85;99858.32;1418434;86;22423;-93
2021/12/08 09:38:11;;;;;;;30.07;16.07;;;;;;;2.28;65.11;99713.41;1442146;87;22207;-91
2021/12/08 09:40:43;;;;;;;26.63;14.50;;;;;;;3.15;65.17;99855.08;1425822;90;22083;-94
2021/12/08 09:43:15;;;;;;;26.83;14.67;;;;;;;4.05;63.57;99859.12;1426903;89;21494;-92
2021/12/08 09:45:49;;;;;;;26.83;15.33;;;;;;;4.72;61.90;99864.27;1424458;92;21384;-93
2021/12/08 09:48:16;;;;;;;43.87;22.87;;;;;;;5.34;61.02;99848.72;1411780;91;21420;-93
2021/12/08 09:50:58;;;;;;;14.17;9.30;;;;;;;5.70;58.65;99848.74;1412530;92;21434;-92
2021/12/08 09:53:28;;;;;;;36.60;20.67;;;;;;;5.65;53.12;99846.49;1429451;90;21583;-93
2021/12/08 09:55:56;;;;;;;26.70;16.10;;;;;;;6.13;56.25;99849.48;1453683;90;21378;-93
2021/12/08 09:58:23;;;;;;;43.47;25.97;;;;;;;6.46;53.91;99853.61;1420562;90;21385;-92
2021/12/08 10:00:53;;;;;;;14.67;9.63;;;;;;;6.81;54.51;99848.33;1411824;85;21620;-93
2021/12/08 10:03:21;;;;;;;13.03;8.83;;;;;;;6.45;49.33;99854.58;1421786;92;21504;-93
2021/12/08 10:05:48;;;;;;;14.80;9.50;;;;;;;6.37;52.16;99851.80;1432507;91;21413;-93
2021/12/08 10:08:21;;;;;;;17.90;11.23;;;;;;;6.12;49.49;99851.28;1433507;91;21347;-95
2021/12/08 10:10:50;;;;;;;20.17;13.13;;;;;;;6.55;52.44;99850.16;1439532;91;21339;-94
2021/12/08 10:13:18;;;;;;;33.47;16.83;;;;;;;6.80;50.14;99848.81;1432239;91;22219;-95
2021/12/08 10:15:45;;;;;;;29.77;18.13;;;;;;;6.68;53.23;99850.74;1433222;91;21391;-94
2021/12/08 10:18:14;;;;;;;17.27;12.27;;;;;;;7.19;53.77;99852.28;1420729;91;21369;-95
2021/12/08 10:20:49;;;;;;;14.97;10.20;;;;;;;7.24;53.29;99857.11;1425769;90;23530;-95
2021/12/08 10:23:39;;;;;;;18.57;11.97;;;;;;;6.96;49.70;99852.20;1430727;90;21784;-95
2021/12/08 10:26:26;;;;;;;16.00;9.60;;;;;;;7.14;49.77;99846.60;1428822;91;21332;-94
2021/12/08 10:28:56;;;;;;;12.27;7.77;;;;;;;7.14;51.28;99843.14;1408674;91;21376;-95
2021/12/08 10:31:34;;;;;;;10.88;7.85;;;;;;;7.20;48.99;99848.67;1401777;91;21472;-96
2021/12/08 10:37:10;;;;;;;14.23;9.23;;;;;;;7.17;51.86;99854.22;1412520;91;21479;-95
2021/12/08 10:39:52;;;;;;;14.57;9.37;;;;;;;6.75;48.42;99862.36;1434818;90;21573;-94
2021/12/08 10:42:29;;;;;;;13.03;8.73;;;;;;;6.93;49.59;99853.79;1432554;90;21361;-94
2021/12/08 10:45:11;;;;;;;12.70;7.57;;;;;;;6.83;48.34;99849.03;1427052;91;21354;-95
2021/12/08 10:48:00;;;;;;;11.83;8.37;;;;;;;6.78;47.82;99860.77;1426466;90;21362;-95
2021/12/08 10:56:40;;;;;;;14.97;9.13;;;;;;;7.11;52.07;99848.20;1427726;90;21468;-94
2021/12/08 10:59:12;;;;;;;12.83;9.07;;;;;;;7.32;51.41;99844.08;1407398;90;21434;-95
2021/12/08 11:01:38;;;;;;;15.33;9.33;;;;;;;7.69;51.90;99847.27;1420554;90;21471;-94
2021/12/08 11:04:11;;;;;;;14.47;10.30;;;;;;;7.72;48.89;99856.20;1415848;91;21482;-95
2021/12/08 11:06:39;;;;;;;11.40;8.20;;;;;;;7.80;49.37;99850.22;1414776;90;23874;-94
2021/12/08 11:09:19;;;;;;;11.83;9.03;;;;;;;7.55;45.66;99839.33;1394015;91;21668;-95
2021/12/08 11:11:48;;;;;;;12.20;8.48;;;;;;;7.61;46.50;99838.75;1411466;92;21356;-96
2021/12/08 11:14:15;;;;;;;14.70;8.00;;;;;;;7.76;47.00;99836.48;1454352;91;21389;-95
2021/12/08 11:16:44;;;;;;;10.67;7.20;;;;;;;7.69;49.54;99830.97;1414118;92;21488;-95
2021/12/08 11:19:16;;;;;;;12.23;8.70;;;;;;;7.42;45.87;99833.52;1412737;91;21457;-96
2021/12/08 11:21:47;;;;;;;14.30;9.53;;;;;;;7.45;46.61;99831.92;1415988;92;22706;-95
2021/12/08 11:24:35;;;;;;;12.13;8.77;;;;;;;7.47;48.50;99831.30;1428905;86;21915;-94
2021/12/08 11:27:06;;;;;;;13.70;10.07;;;;;;;7.50;49.73;99827.56;1469857;87;23263;-93
2021/12/08 11:29:39;;;;;;;15.83;9.30;;;;;;;7.79;47.42;99831.41;1469072;87;21634;-94
2021/12/08 11:32:12;;;;;;;14.80;10.90;;;;;;;7.77;49.65;99829.41;1453739;88;21594;-95
2021/12/08 11:34:46;;;;;;;13.33;9.40;;;;;;;7.90;47.95;99833.87;1466518;87;21562;-92
2021/12/08 11:37:16;;;;;;;18.87;11.37;;;;;;;7.76;47.00;99827.75;1471531;88;21391;-93
2021/12/08 11:39:52;;;;;;;11.80;8.00;;;;;;;8.22;48.43;99829.98;1471036;88;21458;-92
2021/12/08 11:42:25;;;;;;;15.63;8.83;;;;;;;8.46;44.48;99826.81;1471606;87;21494;-93
2021/12/08 11:45:19;;;;;;;18.67;10.37;;;;;;;8.62;46.48;99829.62;1473674;85;21347;-93
2021/12/08 11:47:48;;;;;;;20.00;10.50;;;;;;;8.68;47.68;99824.24;1468794;88;23378;-89
2021/12/08 11:50:22;;;;;;;14.30;9.93;;;;;;;8.88;46.97;99825.75;1447745;88;21687;-89
2021/12/08 11:52:54;;;;;;;12.47;9.10;;;;;;;8.06;43.09;99823.55;1469710;88;21435;-90
2021/12/08 11:55:27;;;;;;;16.67;10.47;;;;;;;8.00;46.32;99825.45;1467174;87;21377;-89
2021/12/08 11:58:01;;;;;;;16.60;11.20;;;;;;;8.01;46.30;99820.52;1471019;87;21553;-90
2021/12/08 12:00:32;;;;;;;27.07;19.63;;;;;;;8.45;47.55;99810.66;1471796;88;21362;-90
2021/12/08 12:03:09;;;;;;;25.57;16.87;;;;;;;8.93;48.56;99810.30;1466513;87;21398;-90
2021/12/08 12:05:39;;;;;;;19.63;12.83;;;;;;;9.30;46.62;99807.95;1452505;88;21495;-89
2021/12/08 12:08:12;;;;;;;16.80;10.88;;;;;;;9.55;45.03;99812.05;1466553;88;22592;-89
2021/12/08 12:10:43;;;;;;;15.43;10.43;;;;;;;9.77;46.62;99802.78;1465334;87;21540;-92
2021/12/08 12:13:10;;;;;;;;;;;;;;;9.24;43.46;99804.61;1479728;87;21413;-93
2021/12/08 12:15:41;;;;;;;15.17;10.13;;;;;;;9.15;42.64;99803.72;1473107;88;20258;-96
2021/12/08 12:18:08;;;;;;;17.03;11.23;;;;;;;8.84;43.03;99809.89;1472476;88;21487;-94
2021/12/08 12:20:41;;;;;;;22.63;14.50;;;;;;;8.93;44.87;99807.66;1468500;88;21362;-92
2021/12/08 12:23:44;;;;;;;27.20;12.07;;;;;;;9.03;45.32;99799.18;1467801;88;22359;-91
2021/12/08 12:26:47;;;;;;;18.87;10.83;;;;;;;8.91;45.22;99801.70;1451626;89;21430;-93
2021/12/08 12:29:19;;;;;;;20.50;11.87;;;;;;;8.61;45.72;99796.33;1446897;89;21474;-91
2021/12/08 12:32:06;;;;;;;17.40;9.90;;;;;;;8.64;46.10;99793.39;1450521;89;21429;-90
2021/12/08 12:34:36;;;;;;;17.20;12.27;;;;;;;8.52;45.56;99790.14;1453573;90;21838;-92
2021/12/08 12:37:19;;;;;;;;;;;;;;;8.55;45.62;99791.16;1419096;89;21369;-88
2021/12/08 12:39:54;;;;;;;19.20;13.10;;;;;;;8.68;46.07;99785.50;1418968;91;20999;-89
2021/12/08 12:42:23;;;;;;;19.73;12.10;;;;;;;9.01;48.18;99789.25;1427459;91;21553;-88
2021/12/08 12:45:07;;;;;;;23.20;14.13;;;;;;;9.10;43.36;99780.91;1445874;91;21332;-88